createdAt,value
2017-12-02T00:00:44.405Z,23.65
2017-12-02T00:03:12.703Z,25.75
2017-12-02T00:05:40.966Z,26.37
2017-12-02T00:08:09.343Z,25.67
2017-12-02T00:10:37.624Z,27.45
2017-12-02T00:13:05.882Z,29.87
2017-12-02T00:15:34.150Z,25.92
2017-12-02T00:18:03.188Z,24.42
2017-12-02T00:20:31.446Z,25.27
2017-12-02T00:22:59.718Z,24.85
2017-12-02T00:25:28.034Z,20.48
2017-12-02T00:27:56.355Z,25.45
2017-12-02T00:30:24.591Z,25.23
2017-12-02T00:32:52.871Z,28.05
2017-12-02T00:35:21.399Z,24.10
2017-12-02T00:37:49.661Z,27.25
2017-12-02T00:40:17.939Z,26.52
2017-12-02T00:42:46.211Z,26.90
2017-12-02T00:45:14.464Z,27.60
2017-12-02T00:47:42.741Z,26.92
2017-12-02T00:50:11.057Z,28.08
2017-12-02T00:52:39.355Z,27.90
2017-12-02T00:55:07.621Z,27.27
2017-12-02T00:57:35.896Z,28.05
2017-12-02T01:00:04.151Z,26.73
2017-12-02T01:02:33.387Z,29.40
2017-12-02T01:05:01.730Z,30.15
2017-12-02T01:07:30.006Z,25.55
2017-12-02T01:09:58.262Z,28.50
2017-12-02T01:12:26.639Z,24.92
2017-12-02T01:14:54.865Z,25.20
2017-12-02T01:17:23.137Z,28.35
2017-12-02T01:19:51.391Z,31.20
2017-12-02T01:22:20.458Z,24.42
2017-12-02T01:24:48.738Z,25.42
2017-12-02T01:27:17.119Z,28.52
2017-12-02T01:29:45.371Z,26.65
2017-12-02T01:32:13.655Z,27.13
2017-12-02T01:34:41.966Z,25.23
2017-12-02T01:37:10.244Z,24.73
2017-12-02T01:39:38.508Z,29.35
2017-12-02T01:42:06.778Z,26.60
2017-12-02T01:44:35.035Z,27.58
2017-12-02T01:47:03.301Z,26.60
2017-12-02T01:49:33.079Z,25.88
2017-12-02T01:52:01.407Z,26.00
2017-12-02T01:54:29.645Z,31.40
2017-12-02T01:56:57.918Z,25.35
2017-12-02T01:59:26.186Z,32.03
2017-12-02T02:01:54.450Z,24.58
2017-12-02T02:04:22.726Z,28.52
2017-12-02T02:06:51.042Z,26.33
2017-12-02T02:09:19.699Z,27.23
2017-12-02T02:11:48.015Z,26.15
2017-12-02T02:14:16.287Z,27.95
2017-12-02T02:16:44.538Z,25.05
2017-12-02T02:19:13.618Z,29.45
2017-12-02T02:21:41.871Z,26.98
2017-12-02T02:24:10.242Z,30.27
2017-12-02T02:26:38.502Z,33.70
2017-12-02T02:29:06.787Z,30.77
2017-12-02T02:31:35.039Z,27.10
2017-12-02T02:34:04.090Z,29.87
2017-12-02T02:36:32.384Z,27.25
2017-12-02T02:39:00.662Z,26.27
2017-12-02T02:41:28.923Z,27.23
2017-12-02T02:43:57.191Z,29.87
2017-12-02T02:46:26.022Z,33.17
2017-12-02T02:48:54.306Z,28.67
2017-12-02T02:51:22.560Z,25.37
2017-12-02T02:53:50.835Z,28.38
2017-12-02T02:56:19.095Z,28.27
2017-12-02T02:58:47.366Z,26.55
2017-12-02T03:01:15.630Z,31.05
2017-12-02T03:03:43.962Z,27.90
2017-12-02T03:06:12.205Z,35.78
2017-12-02T03:08:40.478Z,32.08
2017-12-02T03:11:09.520Z,27.45
2017-12-02T03:13:37.814Z,31.15
2017-12-02T03:16:06.083Z,29.37
2017-12-02T03:18:34.355Z,29.87
2017-12-02T03:21:02.608Z,30.48
2017-12-02T03:23:30.950Z,28.00
2017-12-02T03:25:59.300Z,29.37
2017-12-02T03:28:27.586Z,32.60
2017-12-02T03:30:55.845Z,28.70
2017-12-02T03:33:24.114Z,34.28
2017-12-02T03:35:52.375Z,29.25
2017-12-02T03:38:21.408Z,26.65
2017-12-02T03:40:49.667Z,27.80
2017-12-02T03:43:18.711Z,33.13
2017-12-02T03:45:46.953Z,28.83
2017-12-02T03:48:15.232Z,26.62
2017-12-02T03:50:43.492Z,29.50
2017-12-02T03:53:11.770Z,28.05
2017-12-02T03:55:40.019Z,33.70
2017-12-02T03:58:08.288Z,29.20
2017-12-02T04:00:36.546Z,26.55
2017-12-02T04:03:04.830Z,29.83
2017-12-02T04:05:33.087Z,30.40
2017-12-02T04:08:01.376Z,28.98
2017-12-02T04:10:29.654Z,29.77
2017-12-02T04:12:57.958Z,33.33
2017-12-02T04:15:26.282Z,29.73
2017-12-02T04:17:54.523Z,30.83
2017-12-02T04:20:22.775Z,29.27
2017-12-02T04:22:51.825Z,29.77
2017-12-02T04:25:20.205Z,30.85
2017-12-02T04:27:48.487Z,28.25
2017-12-02T04:30:16.739Z,29.35
2017-12-02T04:32:45.013Z,29.52
2017-12-02T04:35:13.310Z,29.15
2017-12-02T04:37:41.594Z,34.03
2017-12-02T04:40:09.866Z,32.55
2017-12-02T04:42:38.119Z,35.22
2017-12-02T04:45:06.438Z,41.90
2017-12-02T04:47:34.690Z,33.97
2017-12-02T04:50:02.966Z,36.80
2017-12-02T04:52:31.278Z,34.55
2017-12-02T04:54:59.683Z,33.25
2017-12-02T04:57:27.927Z,35.97
2017-12-02T04:59:56.192Z,35.33
2017-12-02T05:02:24.448Z,41.15
2017-12-02T05:04:53.494Z,33.50
2017-12-02T05:07:21.793Z,30.85
2017-12-02T05:09:50.173Z,38.45
2017-12-02T05:12:18.419Z,39.85
2017-12-02T05:14:46.681Z,37.35
2017-12-02T05:17:15.728Z,36.03
2017-12-02T05:19:44.006Z,39.85
2017-12-02T05:22:12.298Z,37.33
2017-12-02T05:24:40.692Z,34.97
2017-12-02T05:27:08.950Z,37.67
2017-12-02T05:29:37.219Z,35.40
2017-12-02T05:32:05.484Z,34.13
2017-12-02T05:34:33.758Z,32.17
2017-12-02T05:37:02.010Z,35.83
2017-12-02T05:39:30.287Z,38.58
2017-12-02T05:41:58.631Z,37.25
2017-12-02T05:44:26.922Z,35.05
2017-12-02T05:46:55.171Z,37.08
2017-12-02T05:49:23.439Z,33.33
2017-12-02T05:51:51.683Z,38.45
2017-12-02T05:54:19.959Z,43.20
2017-12-02T05:56:48.209Z,39.17
2017-12-02T05:59:16.512Z,37.83
2017-12-02T06:01:44.763Z,43.42
2017-12-02T06:04:13.060Z,51.67
2017-12-02T06:06:41.308Z,39.17
2017-12-02T06:09:09.751Z,39.08
2017-12-02T06:11:38.249Z,43.87
2017-12-02T06:14:07.495Z,44.08
2017-12-02T06:16:35.748Z,42.47
2017-12-02T06:19:04.798Z,52.90
2017-12-02T06:21:33.039Z,48.25
2017-12-02T06:24:01.317Z,40.97
2017-12-02T06:26:29.569Z,47.40
2017-12-02T06:28:58.618Z,47.60
2017-12-02T06:31:26.879Z,46.00
2017-12-02T06:33:55.190Z,56.10
2017-12-02T06:36:23.551Z,39.67
2017-12-02T06:38:51.820Z,39.78
2017-12-02T06:41:20.071Z,42.08
2017-12-02T06:43:48.336Z,43.55
2017-12-02T06:46:16.691Z,42.38
2017-12-02T06:48:44.962Z,45.08
2017-12-02T06:51:13.254Z,37.75
2017-12-02T06:53:41.531Z,37.92
2017-12-02T06:56:09.790Z,34.45
2017-12-02T06:58:38.062Z,45.10
2017-12-02T07:01:06.324Z,46.80
2017-12-02T07:03:35.378Z,47.75
2017-12-02T07:06:03.637Z,41.80
2017-12-02T07:08:32.326Z,39.58
2017-12-02T07:11:00.643Z,46.25
2017-12-02T07:13:29.049Z,34.92
2017-12-02T07:15:57.291Z,45.70
2017-12-02T07:18:26.363Z,39.78
2017-12-02T07:20:54.616Z,38.72
2017-12-02T07:23:23.646Z,39.83
2017-12-02T07:25:51.902Z,47.05
2017-12-02T07:28:20.194Z,41.20
2017-12-02T07:30:48.460Z,46.53
2017-12-02T07:33:17.475Z,44.80
2017-12-02T07:35:45.747Z,41.13
2017-12-02T07:38:14.021Z,40.78
2017-12-02T07:40:42.342Z,41.28
2017-12-02T07:43:10.597Z,42.35
2017-12-02T07:45:38.871Z,45.20
2017-12-02T07:48:07.964Z,42.65
2017-12-02T07:50:36.242Z,40.88
2017-12-02T07:53:05.282Z,39.85
2017-12-02T07:55:33.583Z,42.75
2017-12-02T07:58:02.099Z,44.72
2017-12-02T08:00:31.138Z,39.75
2017-12-02T08:02:59.441Z,46.55
2017-12-02T08:05:27.829Z,42.40
2017-12-02T08:07:56.087Z,33.63
2017-12-02T08:10:24.350Z,43.03
2017-12-02T08:12:52.626Z,40.70
2017-12-02T08:15:20.935Z,42.38
2017-12-02T08:17:49.186Z,45.70
2017-12-02T08:20:17.482Z,41.45
2017-12-02T08:22:45.739Z,47.97
2017-12-02T08:25:14.797Z,48.95
2017-12-02T08:27:43.063Z,42.08
2017-12-02T08:30:11.330Z,47.75
2017-12-02T08:32:39.583Z,37.70
2017-12-02T08:35:07.886Z,47.28
2017-12-02T08:37:36.141Z,43.90
2017-12-02T08:40:04.465Z,45.20
2017-12-02T08:42:32.734Z,44.45
2017-12-02T08:45:01.022Z,43.83
2017-12-02T08:47:29.291Z,37.67
2017-12-02T08:49:57.617Z,50.12
2017-12-02T08:52:25.879Z,43.75
2017-12-02T08:54:54.249Z,40.72
2017-12-02T08:57:22.518Z,49.35
2017-12-02T08:59:50.811Z,40.90
2017-12-02T09:02:19.072Z,48.30
2017-12-02T09:04:47.397Z,38.38
2017-12-02T09:07:15.628Z,44.80
2017-12-02T09:09:43.941Z,43.20
2017-12-02T09:12:12.191Z,43.95
2017-12-02T09:14:41.071Z,46.35
2017-12-02T09:17:09.392Z,48.83
2017-12-02T09:19:37.723Z,42.38
2017-12-02T09:22:06.099Z,42.17
2017-12-02T09:24:35.123Z,45.35
2017-12-02T09:27:03.528Z,44.80
2017-12-02T09:29:32.065Z,42.85
2017-12-02T09:32:00.324Z,49.47
2017-12-02T09:34:28.603Z,40.97
2017-12-02T09:36:57.634Z,43.22
2017-12-02T09:39:25.949Z,38.10
2017-12-02T09:41:54.220Z,39.17
2017-12-02T09:44:22.482Z,38.50
2017-12-02T09:46:50.742Z,43.50
2017-12-02T09:49:19.782Z,44.17
2017-12-02T09:51:48.461Z,48.67
2017-12-02T09:54:16.997Z,47.05
2017-12-02T09:56:45.276Z,43.17
2017-12-02T09:59:13.816Z,40.30
2017-12-02T10:01:42.333Z,45.35
2017-12-02T10:04:10.609Z,38.63
2017-12-02T10:06:38.889Z,40.45
2017-12-02T10:09:07.167Z,40.45
2017-12-02T10:11:35.438Z,47.33
2017-12-02T10:14:03.703Z,44.30
2017-12-02T10:16:31.983Z,51.03
2017-12-02T10:19:00.238Z,46.03
2017-12-02T10:21:28.547Z,42.78
2017-12-02T10:23:56.803Z,39.95
2017-12-02T10:26:25.087Z,41.80
2017-12-02T10:28:53.331Z,41.60
2017-12-02T10:31:21.598Z,42.38
2017-12-02T10:33:49.853Z,45.40
2017-12-02T10:36:18.124Z,49.22
2017-12-02T10:38:46.742Z,40.33
2017-12-02T10:41:15.006Z,40.88
2017-12-02T10:43:43.262Z,44.83
2017-12-02T10:46:11.538Z,42.13
2017-12-02T10:48:39.790Z,39.13
2017-12-02T10:51:08.065Z,42.60
2017-12-02T10:53:36.325Z,37.45
2017-12-02T10:56:04.674Z,39.28
2017-12-02T10:58:32.979Z,39.78
2017-12-02T11:01:01.246Z,43.87
2017-12-02T11:03:29.675Z,38.05
2017-12-02T11:05:57.941Z,41.88
2017-12-02T11:08:26.196Z,33.33
2017-12-02T11:10:54.486Z,35.72
2017-12-02T11:13:22.745Z,36.15
2017-12-02T11:15:50.999Z,38.13
2017-12-02T11:18:20.142Z,38.70
2017-12-02T11:20:48.382Z,38.25
2017-12-02T11:23:16.655Z,37.95
2017-12-02T11:25:45.673Z,41.78
2017-12-02T11:28:14.009Z,38.05
2017-12-02T11:30:42.270Z,39.50
2017-12-02T11:33:10.581Z,37.38
2017-12-02T11:35:38.849Z,39.25
2017-12-02T11:38:07.101Z,38.20
2017-12-02T11:40:35.423Z,39.17
2017-12-02T11:43:04.588Z,42.62
2017-12-02T11:45:32.846Z,37.58
2017-12-02T11:48:01.223Z,36.25
2017-12-02T11:50:29.483Z,42.22
2017-12-02T11:52:58.524Z,36.65
2017-12-02T11:55:26.771Z,36.17
2017-12-02T11:57:55.056Z,36.55
2017-12-02T12:00:23.607Z,35.97
2017-12-02T12:02:52.220Z,32.55
2017-12-02T12:05:20.618Z,36.58
2017-12-02T12:07:49.373Z,30.27
2017-12-02T12:10:17.984Z,37.95
2017-12-02T12:12:47.030Z,31.60
2017-12-02T12:15:15.285Z,35.53
2017-12-02T12:17:43.564Z,34.95
2017-12-02T12:20:11.818Z,34.80
2017-12-02T12:22:40.868Z,37.65
2017-12-02T12:25:09.110Z,31.37
2017-12-02T12:27:37.367Z,34.20
2017-12-02T12:30:06.411Z,32.30
2017-12-02T12:32:34.688Z,36.30
2017-12-02T12:35:02.959Z,37.23
2017-12-02T12:37:31.226Z,34.45
2017-12-02T12:40:00.263Z,33.47
2017-12-02T12:42:28.519Z,31.45
2017-12-02T12:44:56.799Z,30.85
2017-12-02T12:47:25.110Z,33.75
2017-12-02T12:49:53.378Z,31.42
2017-12-02T12:52:21.639Z,30.83
2017-12-02T12:54:49.950Z,35.00
2017-12-02T12:57:18.225Z,34.77
2017-12-02T12:59:46.504Z,32.33
2017-12-02T13:02:14.754Z,38.10
2017-12-02T13:04:43.039Z,35.38
2017-12-02T13:07:11.293Z,40.70
2017-12-02T13:09:40.330Z,29.30
2017-12-02T13:12:08.574Z,33.50
2017-12-02T13:14:37.621Z,35.83
2017-12-02T13:17:05.882Z,36.47
2017-12-02T13:19:34.219Z,34.80
2017-12-02T13:22:02.446Z,32.10
2017-12-02T13:24:30.724Z,34.83
2017-12-02T13:26:58.983Z,28.93
2017-12-02T13:29:28.019Z,30.73
2017-12-02T13:31:56.428Z,24.20
2017-12-02T13:34:24.726Z,25.27
2017-12-02T13:36:52.967Z,25.13
2017-12-02T13:39:21.227Z,23.57
2017-12-02T13:41:49.504Z,24.03
2017-12-02T13:44:17.766Z,19.50
2017-12-02T13:46:46.015Z,24.50
2017-12-02T13:49:14.267Z,24.50
2017-12-02T13:51:42.538Z,22.27
2017-12-02T13:54:10.810Z,20.60
2017-12-02T13:56:39.086Z,22.83
2017-12-02T13:59:07.370Z,19.92
2017-12-02T14:01:35.657Z,20.50
2017-12-02T14:04:03.997Z,23.93
2017-12-02T14:06:32.245Z,24.90
2017-12-02T14:09:00.503Z,24.07
2017-12-02T14:11:28.783Z,25.83
2017-12-02T14:13:57.022Z,23.43
2017-12-02T14:16:26.399Z,29.05
2017-12-02T14:18:55.151Z,23.65
2017-12-02T14:21:23.408Z,21.27
2017-12-02T14:23:52.421Z,20.10
2017-12-02T14:26:20.718Z,21.87
2017-12-02T14:28:48.973Z,26.95
2017-12-02T14:31:18.020Z,25.80
2017-12-02T14:33:46.265Z,24.80
2017-12-02T14:36:14.541Z,23.90
2017-12-02T14:38:42.815Z,27.33
2017-12-02T14:41:11.228Z,30.77
2017-12-02T14:43:39.523Z,35.77
2017-12-02T14:46:07.833Z,34.38
2017-12-02T14:48:36.190Z,31.05
2017-12-02T14:51:04.491Z,27.17
2017-12-02T14:53:32.924Z,32.13
2017-12-02T14:56:01.294Z,30.85
2017-12-02T14:58:29.623Z,29.77
2017-12-02T15:00:57.906Z,31.75
2017-12-02T15:03:26.481Z,30.20
2017-12-02T15:05:54.783Z,34.53
2017-12-02T15:08:23.073Z,29.70
2017-12-02T15:10:51.344Z,29.15
2017-12-02T15:13:19.650Z,27.23
2017-12-02T15:15:48.715Z,32.53
2017-12-02T15:18:16.975Z,33.20
2017-12-02T15:20:45.261Z,33.63
2017-12-02T15:23:13.563Z,30.80
2017-12-02T15:25:41.808Z,39.15
2017-12-02T15:28:10.705Z,36.75
2017-12-02T15:30:39.010Z,37.78
2017-12-02T15:33:07.285Z,34.83
2017-12-02T15:35:35.591Z,39.83
2017-12-02T15:38:03.870Z,35.50
2017-12-02T15:40:32.118Z,34.40
2017-12-02T15:43:00.430Z,36.50
2017-12-02T15:45:28.684Z,34.53
2017-12-02T15:47:56.956Z,30.55
2017-12-02T15:50:25.266Z,36.72
2017-12-02T15:52:53.519Z,32.28
2017-12-02T15:55:21.797Z,36.58
2017-12-02T15:57:50.083Z,35.42
2017-12-02T16:00:19.197Z,32.40
2017-12-02T16:02:47.586Z,35.05
2017-12-02T16:05:15.893Z,33.50
2017-12-02T16:07:44.118Z,35.15
2017-12-02T16:10:12.406Z,43.05
2017-12-02T16:12:40.682Z,40.88
2017-12-02T16:15:08.958Z,46.55
2017-12-02T16:17:37.214Z,36.13
2017-12-02T16:20:06.366Z,42.38
2017-12-02T16:22:34.624Z,33.22
2017-12-02T16:25:02.938Z,32.35
2017-12-02T16:27:31.274Z,30.92
2017-12-02T16:29:59.607Z,31.52
2017-12-02T16:32:29.366Z,29.63
2017-12-02T16:34:57.627Z,32.78
2017-12-02T16:37:26.663Z,27.95
2017-12-02T16:39:54.942Z,26.65
2017-12-02T16:42:23.671Z,26.10
2017-12-02T16:44:52.030Z,32.40
2017-12-02T16:47:20.470Z,28.95
2017-12-02T16:49:49.514Z,30.80
2017-12-02T16:52:17.761Z,30.58
2017-12-02T16:54:46.036Z,27.70
2017-12-02T16:57:14.293Z,32.15
2017-12-02T16:59:42.564Z,31.17
2017-12-02T17:02:10.835Z,28.00
2017-12-02T17:04:39.108Z,30.90
2017-12-02T17:07:07.369Z,29.10
2017-12-02T17:09:35.643Z,29.90
2017-12-02T17:12:03.897Z,28.05
2017-12-02T17:14:32.222Z,31.58
2017-12-02T17:17:00.527Z,37.17
2017-12-02T17:19:28.898Z,32.42
2017-12-02T17:22:00.537Z,27.23
2017-12-02T17:24:28.833Z,30.98
2017-12-02T17:26:57.099Z,30.40
2017-12-02T17:29:25.370Z,29.80
2017-12-02T17:31:53.623Z,32.17
2017-12-02T17:34:22.644Z,30.83
2017-12-02T17:36:50.915Z,31.12
2017-12-02T17:39:19.226Z,31.65
2017-12-02T17:41:48.180Z,38.72
2017-12-02T17:44:16.571Z,37.45
2017-12-02T17:46:44.834Z,35.33
2017-12-02T17:49:13.858Z,39.28
2017-12-02T17:51:42.136Z,36.50
2017-12-02T17:54:10.412Z,38.72
2017-12-02T17:56:38.693Z,37.75
2017-12-02T17:59:06.938Z,52.60
2017-12-02T18:01:36.159Z,47.88
2017-12-02T18:04:04.394Z,109.82
2017-12-02T18:06:32.693Z,48.05
2017-12-02T18:09:00.933Z,49.63
2017-12-02T18:11:29.199Z,49.35
2017-12-02T18:13:57.518Z,40.92
2017-12-02T18:16:25.786Z,49.45
2017-12-02T18:18:54.065Z,44.08
2017-12-02T18:21:22.340Z,48.17
2017-12-02T18:23:50.822Z,43.28
2017-12-02T18:26:19.114Z,49.85
2017-12-02T18:28:47.369Z,46.88
2017-12-02T18:31:15.645Z,44.97
2017-12-02T18:33:43.891Z,43.70
2017-12-02T18:36:12.258Z,44.17
2017-12-02T18:38:40.515Z,45.00
2017-12-02T18:41:08.787Z,43.10
2017-12-02T18:43:37.077Z,38.75
2017-12-02T18:46:05.338Z,37.15
2017-12-02T18:48:33.676Z,42.28
2017-12-02T18:51:01.930Z,39.92
2017-12-02T18:53:30.198Z,41.97
2017-12-02T18:55:58.479Z,45.72
2017-12-02T18:58:26.748Z,41.45
2017-12-02T19:00:55.015Z,41.80
2017-12-02T19:03:23.343Z,44.37
2017-12-02T19:05:51.840Z,38.67
2017-12-02T19:08:20.101Z,46.70
2017-12-02T19:10:48.380Z,46.78
2017-12-02T19:13:16.675Z,43.03
2017-12-02T19:15:44.939Z,40.67
2017-12-02T19:18:13.219Z,46.80
2017-12-02T19:20:41.486Z,40.47
2017-12-02T19:23:09.770Z,43.27
2017-12-02T19:25:38.163Z,45.37
2017-12-02T19:28:06.425Z,49.70
2017-12-02T19:30:34.703Z,45.80
2017-12-02T19:33:02.979Z,48.30
2017-12-02T19:35:31.262Z,44.65
2017-12-02T19:37:59.569Z,49.08
2017-12-02T19:40:27.834Z,46.50
2017-12-02T19:42:56.101Z,41.53
2017-12-02T19:45:24.421Z,47.50
2017-12-02T19:47:52.780Z,47.40
2017-12-02T19:50:21.062Z,43.17
2017-12-02T19:52:49.346Z,42.08
2017-12-02T19:55:17.618Z,49.47
2017-12-02T19:57:45.895Z,46.00
2017-12-02T20:00:14.168Z,45.65
2017-12-02T20:02:43.419Z,42.95
2017-12-02T20:05:11.697Z,44.83
2017-12-02T20:07:39.958Z,44.47
2017-12-02T20:10:08.222Z,50.60
2017-12-02T20:12:36.487Z,41.65
2017-12-02T20:15:04.773Z,43.38
2017-12-02T20:17:33.263Z,42.40
2017-12-02T20:20:01.915Z,46.80
2017-12-02T20:22:30.255Z,41.25
2017-12-02T20:24:58.553Z,42.67
2017-12-02T20:27:26.822Z,46.40
2017-12-02T20:29:55.098Z,46.53
2017-12-02T20:32:23.380Z,40.78
2017-12-02T20:34:51.822Z,48.92
2017-12-02T20:37:20.863Z,45.35
2017-12-02T20:39:49.122Z,46.35
2017-12-02T20:42:17.387Z,44.20
2017-12-02T20:44:45.658Z,43.42
2017-12-02T20:47:14.686Z,41.70
2017-12-02T20:49:42.952Z,40.38
2017-12-02T20:52:11.258Z,41.15
2017-12-02T20:54:39.518Z,41.40
2017-12-02T20:57:07.800Z,44.83
2017-12-02T20:59:36.065Z,44.20
2017-12-02T21:02:04.445Z,45.15
2017-12-02T21:04:32.699Z,41.07
2017-12-02T21:07:00.974Z,42.13
2017-12-02T21:09:29.244Z,42.22
2017-12-02T21:11:57.513Z,47.65
2017-12-02T21:14:25.759Z,42.10
2017-12-02T21:16:54.039Z,44.00
2017-12-02T21:19:22.289Z,44.17
2017-12-02T21:21:51.446Z,48.80
2017-12-02T21:24:19.693Z,49.23
2017-12-02T21:26:47.967Z,49.40
2017-12-02T21:29:17.010Z,46.53
2017-12-02T21:31:45.282Z,41.45
2017-12-02T21:34:13.557Z,44.53
2017-12-02T21:36:41.835Z,45.47
2017-12-02T21:39:10.091Z,44.70
2017-12-02T21:41:39.238Z,45.75
2017-12-02T21:44:07.550Z,42.62
2017-12-02T21:46:35.942Z,46.63
2017-12-02T21:49:04.227Z,41.65
2017-12-02T21:51:34.036Z,48.55
2017-12-02T21:54:03.095Z,45.20
2017-12-02T21:56:31.370Z,45.60
2017-12-02T21:58:59.618Z,44.27
2017-12-02T22:01:28.172Z,47.85
2017-12-02T22:03:57.684Z,43.47
2017-12-02T22:06:27.193Z,48.42
2017-12-02T22:08:56.290Z,42.67
2017-12-02T22:11:25.510Z,46.28
2017-12-02T22:13:54.518Z,40.07
2017-12-02T22:16:22.798Z,41.97
2017-12-02T22:18:51.050Z,39.23
2017-12-02T22:21:19.396Z,39.70
2017-12-02T22:23:47.645Z,38.35
2017-12-02T22:26:16.763Z,39.63
2017-12-02T22:28:45.119Z,38.73
2017-12-02T22:31:14.138Z,42.70
2017-12-02T22:33:42.438Z,45.08
2017-12-02T22:36:10.702Z,48.70
2017-12-02T22:38:38.956Z,47.90
2017-12-02T22:41:07.247Z,45.67
2017-12-02T22:43:36.466Z,42.87
2017-12-02T22:46:04.746Z,46.35
2017-12-02T22:48:33.009Z,43.03
2017-12-02T22:51:01.389Z,38.90
2017-12-02T22:53:30.432Z,42.42
2017-12-02T22:55:58.700Z,42.47
2017-12-02T22:58:26.947Z,45.63
2017-12-02T23:00:55.978Z,43.07
2017-12-02T23:03:24.238Z,47.55
2017-12-02T23:05:52.542Z,41.80
2017-12-02T23:08:20.808Z,39.42
2017-12-02T23:10:49.069Z,48.13
2017-12-02T23:13:17.329Z,46.22
2017-12-02T23:15:46.375Z,37.58
2017-12-02T23:18:14.654Z,39.90
2017-12-02T23:20:42.931Z,39.42
2017-12-02T23:23:11.215Z,37.67
2017-12-02T23:25:39.470Z,40.08
2017-12-02T23:28:07.816Z,42.20
2017-12-02T23:30:36.061Z,36.80
2017-12-02T23:33:04.341Z,42.13
2017-12-02T23:35:32.619Z,44.17
2017-12-02T23:38:00.893Z,44.25
2017-12-02T23:40:30.092Z,39.97
2017-12-02T23:42:58.380Z,43.07
2017-12-02T23:45:26.628Z,40.80
2017-12-02T23:47:55.774Z,44.45
2017-12-02T23:50:24.055Z,42.78
2017-12-02T23:52:52.317Z,43.60
2017-12-02T23:55:20.582Z,40.63
2017-12-02T23:57:49.606Z,37.63
